createdAt,value
2024-01-15T00:00:30.977Z,96978.88
2024-01-15T00:03:18.234Z,96970.63
2024-01-15T00:05:45.675Z,96979.66
2024-01-15T00:08:12.824Z,96973.41
2024-01-15T00:10:41.572Z,96964.31
2024-01-15T00:13:08.698Z,96954.66
2024-01-15T00:15:35.676Z,96953.88
2024-01-15T00:18:03.105Z,96956.31
2024-01-15T00:20:31.188Z,96951.59
2024-01-15T00:22:58.482Z,96946.22
2024-01-15T00:25:25.325Z,96956.69
2024-01-15T00:27:52.454Z,96952.66
2024-01-15T00:30:19.671Z,96952.56
2024-01-15T00:32:47.059Z,96940.78
2024-01-15T00:35:14.237Z,96939.50
2024-01-15T00:37:41.458Z,96946.47
2024-01-15T00:40:09.239Z,96939.97
2024-01-15T00:42:36.440Z,96937.78
2024-01-15T00:45:03.707Z,96937.06
2024-01-15T00:47:30.944Z,96936.13
2024-01-15T00:49:57.849Z,96924.25
2024-01-15T00:52:24.986Z,96912.44
2024-01-15T00:54:51.950Z,96921.47
2024-01-15T00:57:20.382Z,96903.22
2024-01-15T00:59:48.293Z,96907.91
2024-01-15T01:02:15.408Z,96906.81
2024-01-15T01:04:42.191Z,96904.56
2024-01-15T01:07:09.295Z,96902.72
2024-01-15T01:09:36.110Z,96894.88
2024-01-15T01:12:03.547Z,96901.03
2024-01-15T01:14:30.436Z,96899.69
2024-01-15T01:16:57.842Z,96894.41
2024-01-15T01:19:26.522Z,96888.19
2024-01-15T01:21:53.777Z,96882.38
2024-01-15T01:24:20.622Z,96879.63
2024-01-15T01:26:47.964Z,96871.28
2024-01-15T01:29:14.777Z,96865.94
2024-01-15T01:31:45.760Z,96856.16
2024-01-15T01:34:15.470Z,96847.25
2024-01-15T01:36:43.572Z,96838.09
2024-01-15T01:39:10.592Z,96835.06
2024-01-15T01:41:39.033Z,96832.03
2024-01-15T01:44:05.895Z,96827.19
2024-01-15T01:46:33.079Z,96836.97
2024-01-15T01:49:02.766Z,96845.59
2024-01-15T01:51:29.898Z,96818.97
2024-01-15T01:53:56.767Z,96824.28
2024-01-15T01:56:23.853Z,96819.94
2024-01-15T01:58:50.657Z,96825.03
2024-01-15T02:01:18.275Z,96822.13
2024-01-15T02:03:45.208Z,96814.88
2024-01-15T02:06:12.400Z,96822.97
2024-01-15T02:08:39.348Z,96818.59
2024-01-15T02:11:06.420Z,96817.28
2024-01-15T02:13:33.203Z,96810.16
2024-01-15T02:16:00.351Z,96803.34
2024-01-15T02:18:27.375Z,96803.34
2024-01-15T02:20:54.636Z,96798.41
2024-01-15T02:23:21.510Z,96790.78
2024-01-15T02:25:48.722Z,96782.44
2024-01-15T02:28:17.082Z,96776.88
2024-01-15T02:30:44.776Z,96771.06
2024-01-15T02:33:12.562Z,96771.91
2024-01-15T02:35:39.979Z,96763.44
2024-01-15T02:38:07.291Z,96763.06
2024-01-15T02:40:34.575Z,96755.94
2024-01-15T02:43:01.470Z,96753.75
2024-01-15T02:45:28.827Z,96752.78
2024-01-15T02:47:55.775Z,96762.47
2024-01-15T02:50:22.895Z,96760.53
2024-01-15T02:52:49.826Z,96753.41
2024-01-15T02:55:17.125Z,96754.59
2024-01-15T02:57:44.113Z,96751.09
2024-01-15T03:00:12.888Z,96750.97
2024-01-15T03:02:48.532Z,96742.16
2024-01-15T03:05:16.474Z,96751.94
2024-01-15T03:07:43.629Z,96735.00
2024-01-15T03:10:10.864Z,96739.50
2024-01-15T03:12:37.684Z,96737.19
2024-01-15T03:15:05.393Z,96732.94
2024-01-15T03:17:32.372Z,96714.44
2024-01-15T03:19:59.724Z,96711.78
2024-01-15T03:22:26.549Z,96708.25
2024-01-15T03:24:54.117Z,96714.56
2024-01-15T03:27:21.023Z,96718.53
2024-01-15T03:29:48.246Z,96697.97
2024-01-15T03:32:16.878Z,96702.47
2024-01-15T03:34:44.049Z,96688.31
2024-01-15T03:37:10.885Z,96687.38
2024-01-15T03:39:38.130Z,96685.53
2024-01-15T03:42:05.289Z,96687.13
2024-01-15T03:44:32.464Z,96672.97
2024-01-15T03:46:59.684Z,96685.78
2024-01-15T03:49:26.985Z,96679.38
2024-01-15T03:51:53.947Z,96667.75
2024-01-15T03:54:21.298Z,96670.19
2024-01-15T03:56:48.223Z,96669.94
2024-01-15T03:59:15.359Z,96666.56
2024-01-15T04:01:42.339Z,96644.69
2024-01-15T04:04:09.663Z,96653.75
2024-01-15T04:06:36.674Z,96655.22
2024-01-15T04:09:04.055Z,96670.19
2024-01-15T04:11:30.938Z,96663.56
2024-01-15T04:13:58.053Z,96661.72
2024-01-15T04:16:24.912Z,96661.72
2024-01-15T04:18:52.389Z,96658.34
2024-01-15T04:21:19.874Z,96670.91
2024-01-15T04:23:47.098Z,96656.53
2024-01-15T04:26:13.963Z,96664.03
2024-01-15T04:28:41.572Z,96672.47
2024-01-15T04:31:08.586Z,96653.16
2024-01-15T04:33:36.033Z,96645.88
2024-01-15T04:36:04.893Z,96646.13
2024-01-15T04:38:33.602Z,96639.25
2024-01-15T04:41:00.404Z,96644.56
2024-01-15T04:43:27.499Z,96643.59
2024-01-15T04:45:54.382Z,96644.81
2024-01-15T04:48:21.568Z,96629.81
2024-01-15T04:50:49.112Z,96658.59
2024-01-15T04:53:16.518Z,96655.69
2024-01-15T04:55:43.325Z,96669.81
2024-01-15T04:58:10.441Z,96675.25
2024-01-15T05:00:37.295Z,96673.94
2024-01-15T05:03:04.782Z,96673.56
2024-01-15T05:05:31.828Z,96671.75
2024-01-15T05:07:58.957Z,96662.31
2024-01-15T05:10:25.834Z,96661.84
2024-01-15T05:12:53.659Z,96661.34
2024-01-15T05:15:21.049Z,96664.72
2024-01-15T05:17:48.432Z,96662.81
2024-01-15T05:20:15.782Z,96651.44
2024-01-15T05:22:43.003Z,96661.34
2024-01-15T05:25:09.838Z,96655.91
2024-01-15T05:27:36.987Z,96664.38
2024-01-15T05:30:05.143Z,96658.94
2024-01-15T05:32:33.156Z,96653.97
2024-01-15T05:35:00.095Z,96666.81
2024-01-15T05:37:27.288Z,96648.41
2024-01-15T05:39:54.247Z,96652.78
2024-01-15T05:42:21.714Z,96647.69
2024-01-15T05:44:48.534Z,96639.72
2024-01-15T05:47:15.758Z,96637.53
2024-01-15T05:49:42.680Z,96644.22
2024-01-15T05:52:09.908Z,96643.34
2024-01-15T05:54:36.765Z,96653.72
2024-01-15T05:57:04.301Z,96650.34
2024-01-15T05:59:33.418Z,96645.28
2024-01-15T06:02:00.602Z,96659.53
2024-01-15T06:04:27.533Z,96655.78
2024-01-15T06:06:54.739Z,96651.31
2024-01-15T06:09:21.573Z,96654.69
2024-01-15T06:11:48.662Z,96667.16
2024-01-15T06:14:15.501Z,96671.03
2024-01-15T06:16:42.592Z,96670.16
2024-01-15T06:19:09.655Z,96660.66
2024-01-15T06:21:36.969Z,96662.81
2024-01-15T06:24:03.960Z,96660.53
2024-01-15T06:26:31.041Z,96667.41
2024-01-15T06:28:57.845Z,96671.53
2024-01-15T06:31:25.025Z,96666.56
2024-01-15T06:33:52.068Z,96660.63
2024-01-15T06:36:19.594Z,96663.91
2024-01-15T06:38:46.442Z,96665.22
2024-01-15T06:41:13.681Z,96660.41
2024-01-15T06:43:40.648Z,96654.09
2024-01-15T06:46:08.757Z,96659.91
2024-01-15T06:48:36.068Z,96648.66
2024-01-15T06:51:03.402Z,96651.56
2024-01-15T06:53:30.189Z,96651.44
2024-01-15T06:55:57.375Z,96680.81
2024-01-15T06:58:24.217Z,96706.47
2024-01-15T07:00:51.544Z,96706.09
2024-01-15T07:03:18.665Z,96712.38
2024-01-15T07:05:46.009Z,96710.44
2024-01-15T07:08:12.909Z,96714.31
2024-01-15T07:10:40.039Z,96725.81
2024-01-15T07:13:07.010Z,96728.22
2024-01-15T07:15:34.268Z,96730.66
2024-01-15T07:18:01.164Z,96742.59
2024-01-15T07:20:28.663Z,96744.19
2024-01-15T07:22:55.438Z,96756.53
2024-01-15T07:25:22.746Z,96760.63
2024-01-15T07:27:49.649Z,96742.13
2024-01-15T07:30:16.973Z,96746.47
2024-01-15T07:32:43.905Z,96757.00
2024-01-15T07:35:11.719Z,96761.59
2024-01-15T07:37:38.638Z,96762.06
2024-01-15T07:40:08.070Z,96763.38
2024-01-15T07:42:35.974Z,96764.84
2024-01-15T07:45:03.241Z,96774.38
2024-01-15T07:47:30.062Z,96779.31
2024-01-15T07:50:00.257Z,96773.41
2024-01-15T07:52:28.927Z,96764.91
2024-01-15T07:54:56.245Z,96775.34
2024-01-15T07:57:24.020Z,96773.78
2024-01-15T07:59:51.156Z,96773.78
2024-01-15T08:02:18.013Z,96785.34
2024-01-15T08:04:46.192Z,96781.88
2024-01-15T08:07:14.458Z,96777.16
2024-01-15T08:09:41.694Z,96783.19
2024-01-15T08:12:08.768Z,96786.59
2024-01-15T08:14:35.931Z,96785.75
2024-01-15T08:17:02.961Z,96790.94
2024-01-15T08:19:30.979Z,96790.72
2024-01-15T08:21:57.941Z,96791.44
2024-01-15T08:24:24.668Z,96783.56
2024-01-15T08:26:51.809Z,96782.84
2024-01-15T08:29:19.991Z,96785.50
2024-01-15T08:31:47.332Z,96774.53
2024-01-15T08:34:14.295Z,96767.00
2024-01-15T08:36:42.007Z,96770.50
2024-01-15T08:39:10.322Z,96764.13
2024-01-15T08:41:37.623Z,96772.81
2024-01-15T08:44:04.560Z,96778.25
2024-01-15T08:46:31.695Z,96763.38
2024-01-15T08:48:58.800Z,96778.03
2024-01-15T08:51:25.970Z,96783.91
2024-01-15T08:53:52.773Z,96789.97
2024-01-15T08:56:19.874Z,96796.88
2024-01-15T08:58:47.455Z,96797.59
2024-01-15T09:01:14.936Z,96789.38
2024-01-15T09:03:44.012Z,96799.56
2024-01-15T09:06:11.846Z,96801.00
2024-01-15T09:08:38.959Z,96791.81
2024-01-15T09:11:06.163Z,96793.66
2024-01-15T09:13:33.423Z,96801.84
2024-01-15T09:16:01.385Z,96807.66
2024-01-15T09:18:29.182Z,96789.03
2024-01-15T09:20:56.481Z,96797.03
2024-01-15T09:23:23.321Z,96792.19
2024-01-15T09:25:50.903Z,96800.28
2024-01-15T09:28:17.723Z,96794.47
2024-01-15T09:30:46.576Z,96797.88
2024-01-15T09:33:13.621Z,96803.06
2024-01-15T09:35:41.120Z,96796.78
2024-01-15T09:38:07.933Z,96804.53
2024-01-15T09:40:35.170Z,96801.50
2024-01-15T09:43:02.808Z,96794.50
2024-01-15T09:45:30.217Z,96791.34
2024-01-15T09:47:57.213Z,96795.00
2024-01-15T09:50:24.406Z,96786.91
2024-01-15T09:52:51.427Z,96777.69
2024-01-15T09:55:18.863Z,96776.63
2024-01-15T09:57:47.336Z,96769.94
2024-01-15T10:00:15.039Z,96763.78
2024-01-15T10:02:41.863Z,96770.06
2024-01-15T10:05:09.398Z,96764.50
2024-01-15T10:07:36.840Z,96773.84
2024-01-15T10:10:06.961Z,96760.78
2024-01-15T10:12:34.032Z,96765.00
2024-01-15T10:15:01.220Z,96760.16
2024-01-15T10:17:32.304Z,96770.09
2024-01-15T10:19:59.505Z,96754.84
2024-01-15T10:22:27.136Z,96768.16
2024-01-15T10:24:54.388Z,96769.63
2024-01-15T10:27:21.378Z,96771.69
2024-01-15T10:29:48.622Z,96775.19
2024-01-15T10:32:15.554Z,96770.09
2024-01-15T10:34:44.602Z,96763.56
2024-01-15T10:37:12.097Z,96779.41
2024-01-15T10:39:40.382Z,96779.03
2024-01-15T10:42:08.247Z,96776.38
2024-01-15T10:44:36.624Z,96778.44
2024-01-15T10:47:03.859Z,96774.59
2024-01-15T10:49:33.399Z,96767.56
2024-01-15T10:52:04.901Z,96770.22
2024-01-15T10:54:32.918Z,96774.72
2024-01-15T10:56:59.898Z,96770.09
2024-01-15T10:59:27.053Z,96771.06
2024-01-15T11:01:55.657Z,96768.41
2024-01-15T11:04:24.818Z,96773.72
2024-01-15T11:06:55.144Z,96760.19
2024-01-15T11:09:24.581Z,96757.88
2024-01-15T11:11:54.224Z,96759.22
2024-01-15T11:14:36.804Z,96762.84
2024-01-15T11:17:03.830Z,96763.69
2024-01-15T11:19:43.363Z,96761.75
2024-01-15T11:22:11.057Z,96750.84
2024-01-15T11:24:41.621Z,96755.09
2024-01-15T11:27:09.317Z,96752.78
2024-01-15T11:29:37.419Z,96757.41
2024-01-15T11:32:10.628Z,96755.56
2024-01-15T11:35:00.861Z,96752.69
2024-01-15T11:37:28.960Z,96751.47
2024-01-15T11:39:57.866Z,96754.63
2024-01-15T11:42:24.886Z,96757.41
2024-01-15T11:44:52.160Z,96762.13
2024-01-15T11:47:38.265Z,96759.59
2024-01-15T11:50:07.393Z,96764.91
2024-01-15T11:52:35.960Z,96773.38
2024-01-15T11:55:09.014Z,96765.16
2024-01-15T11:57:51.953Z,96770.22
2024-01-15T12:00:19.224Z,96767.44
2024-01-15T12:02:47.191Z,96772.91
2024-01-15T12:05:16.118Z,96765.63
2024-01-15T12:07:43.779Z,96782.91
2024-01-15T12:10:17.694Z,96779.91
2024-01-15T12:13:02.014Z,96781.59
2024-01-15T12:15:30.068Z,96774.44
2024-01-15T12:17:59.012Z,96772.75
2024-01-15T12:20:33.377Z,96768.03
2024-01-15T12:23:02.712Z,96765.00
2024-01-15T12:25:31.676Z,96763.31
2024-01-15T12:27:59.044Z,96758.84
2024-01-15T12:30:27.848Z,96761.84
2024-01-15T12:32:55.266Z,96766.22
2024-01-15T12:35:22.503Z,96759.78
2024-01-15T12:37:49.323Z,96763.31
2024-01-15T12:40:20.501Z,96764.16
2024-01-15T12:42:47.679Z,96767.81
2024-01-15T12:45:15.407Z,96763.44
2024-01-15T12:47:42.691Z,96767.53
2024-01-15T12:50:19.273Z,96770.84
2024-01-15T12:52:47.435Z,96782.81
2024-01-15T12:55:14.874Z,96779.31
2024-01-15T12:57:41.866Z,96778.69
2024-01-15T13:00:13.759Z,96773.50
2024-01-15T13:02:42.808Z,96778.81
2024-01-15T13:05:12.714Z,96777.47
2024-01-15T13:07:40.476Z,96780.75
2024-01-15T13:10:08.144Z,96778.19
2024-01-15T13:12:35.620Z,96771.06
2024-01-15T13:15:04.842Z,96775.66
2024-01-15T13:17:32.177Z,96773.00
2024-01-15T13:19:59.969Z,96766.34
2024-01-15T13:22:31.620Z,96759.69
2024-01-15T13:24:59.791Z,96750.25
2024-01-15T13:27:26.692Z,96755.34
2024-01-15T13:29:53.865Z,96756.41
2024-01-15T13:32:25.533Z,96759.19
2024-01-15T13:34:52.724Z,96753.88
2024-01-15T13:37:19.570Z,96758.84
2024-01-15T13:39:46.788Z,96755.81
2024-01-15T13:42:13.640Z,96756.06
2024-01-15T13:44:40.786Z,96751.59
2024-01-15T13:47:07.841Z,96754.84
2024-01-15T13:49:35.660Z,96764.63
2024-01-15T13:52:05.111Z,96771.44
2024-01-15T13:54:44.731Z,96768.03
2024-01-15T13:57:16.526Z,96763.09
2024-01-15T13:59:43.816Z,96767.56
2024-01-15T14:02:11.285Z,96764.03
2024-01-15T14:04:39.791Z,96761.88
2024-01-15T14:07:07.410Z,96752.44
2024-01-15T14:09:34.837Z,96765.03
2024-01-15T14:12:01.828Z,96752.91
2024-01-15T14:14:28.969Z,96761.28
2024-01-15T14:16:55.822Z,96764.53
2024-01-15T14:19:23.308Z,96764.03
2024-01-15T14:21:50.374Z,96756.69
2024-01-15T14:24:18.800Z,96755.97
2024-01-15T14:26:46.976Z,96762.97
2024-01-15T14:29:14.125Z,96764.28
2024-01-15T14:31:41.178Z,96762.47
2024-01-15T14:34:10.079Z,96766.34
2024-01-15T14:36:37.059Z,96763.06
2024-01-15T14:39:04.165Z,96767.31
2024-01-15T14:41:31.305Z,96770.00
2024-01-15T14:43:58.746Z,96774.44
2024-01-15T14:46:28.263Z,96777.59
2024-01-15T14:48:55.504Z,96772.41
2024-01-15T14:51:22.443Z,96777.72
2024-01-15T14:53:49.682Z,96778.31
2024-01-15T14:56:18.600Z,96779.03
2024-01-15T14:58:46.036Z,96777.50
2024-01-15T15:01:13.832Z,96785.84
2024-01-15T15:03:41.617Z,96783.06
2024-01-15T15:06:09.020Z,96780.16
2024-01-15T15:08:38.011Z,96789.22
2024-01-15T15:11:05.314Z,96781.81
2024-01-15T15:13:41.714Z,96785.25
2024-01-15T15:16:12.547Z,96787.16
2024-01-15T15:18:39.967Z,96780.03
2024-01-15T15:21:08.526Z,96779.03
2024-01-15T15:23:35.839Z,96774.72
2024-01-15T15:26:02.865Z,96786.44
2024-01-15T15:28:30.050Z,96787.03
2024-01-15T15:30:58.246Z,96782.81
2024-01-15T15:33:26.124Z,96785.81
2024-01-15T15:35:53.283Z,96790.19
2024-01-15T15:38:21.181Z,96786.06
2024-01-15T15:40:47.980Z,96789.44
2024-01-15T15:43:15.084Z,96792.47
2024-01-15T15:45:42.068Z,96792.47
2024-01-15T15:48:09.355Z,96795.97
2024-01-15T15:50:37.871Z,96793.34
2024-01-15T15:53:05.587Z,96795.75
2024-01-15T15:55:33.078Z,96801.09
2024-01-15T15:58:00.401Z,96802.91
2024-01-15T16:00:27.660Z,96800.84
2024-01-15T16:02:54.817Z,96804.34
2024-01-15T16:05:25.561Z,96802.19
2024-01-15T16:07:55.981Z,96812.94
2024-01-15T16:10:22.812Z,96822.25
2024-01-15T16:12:49.963Z,96829.41
2024-01-15T16:15:23.419Z,96826.38
2024-01-15T16:23:17.357Z,96824.31
2024-01-15T16:23:31.513Z,96815.94
2024-01-15T16:24:04.055Z,96813.41
2024-01-15T16:26:12.069Z,96809.19
2024-01-15T16:28:39.577Z,96811.25
2024-01-15T16:31:08.761Z,96805.06
2024-01-15T16:33:37.398Z,96803.97
2024-01-15T16:36:05.123Z,96804.59
2024-01-15T16:38:32.699Z,96799.03
2024-01-15T16:40:59.768Z,96798.06
2024-01-15T16:43:27.692Z,96792.97
2024-01-15T16:45:54.682Z,96789.22
2024-01-15T16:48:22.116Z,96787.41
2024-01-15T16:50:49.219Z,96792.97
2024-01-15T16:53:16.628Z,96793.72
2024-01-15T16:55:44.324Z,96784.25
2024-01-15T16:58:12.228Z,96791.75
2024-01-15T17:00:39.106Z,96792.47
2024-01-15T17:03:07.474Z,96784.97
2024-01-15T17:05:34.522Z,96781.47
2024-01-15T17:08:02.335Z,96782.56
2024-01-15T17:10:29.266Z,96784.88
2024-01-15T17:12:56.727Z,96787.28
2024-01-15T17:15:23.664Z,96781.50
2024-01-15T17:17:50.991Z,96797.09
2024-01-15T17:20:18.168Z,96789.31
2024-01-15T17:22:45.373Z,96785.09
2024-01-15T17:25:12.196Z,96792.97
2024-01-15T17:27:39.425Z,96790.66
2024-01-15T17:30:08.552Z,96788.97
2024-01-15T17:32:35.992Z,96795.28
2024-01-15T17:35:02.958Z,96800.72
2024-01-15T17:37:30.168Z,96794.44
2024-01-15T17:39:56.966Z,96795.28
2024-01-15T17:42:24.110Z,96789.59
2024-01-15T17:44:52.247Z,96796.47
2024-01-15T17:47:19.444Z,96795.25
2024-01-15T17:49:46.366Z,96804.47
2024-01-15T17:52:13.492Z,96806.50
2024-01-15T17:54:40.298Z,96808.22
2024-01-15T17:57:07.421Z,96803.13
2024-01-15T17:59:35.523Z,96815.59
2024-01-15T18:02:02.876Z,96812.06
2024-01-15T18:04:30.001Z,96817.78
2024-01-15T18:06:57.945Z,96817.53
2024-01-15T18:09:24.879Z,96814.88
2024-01-15T18:11:52.123Z,96819.22
2024-01-15T18:14:18.992Z,96832.78
2024-01-15T18:16:49.585Z,96837.59
2024-01-15T18:19:18.497Z,96826.72
2024-01-15T18:21:45.776Z,96835.81
2024-01-15T18:24:12.659Z,96841.84
2024-01-15T18:26:42.863Z,96845.69
2024-01-15T18:29:10.753Z,96838.22
2024-01-15T18:31:37.983Z,96839.50
2024-01-15T18:34:04.888Z,96847.03
2024-01-15T18:36:37.842Z,96849.09
2024-01-15T18:39:08.074Z,96845.72
2024-01-15T18:41:37.408Z,96840.13
2024-01-15T18:44:04.436Z,96839.06
2024-01-15T18:46:31.633Z,96844.13
2024-01-15T18:48:58.429Z,96850.41
2024-01-15T18:51:25.768Z,96848.47
2024-01-15T18:53:52.682Z,96838.94
2024-01-15T18:56:20.025Z,96844.38
2024-01-15T18:58:46.880Z,96851.97
2024-01-15T19:01:14.887Z,96849.09
2024-01-15T19:03:42.191Z,96851.63
2024-01-15T19:06:10.263Z,96856.84
2024-01-15T19:08:37.273Z,96857.06
2024-01-15T19:11:04.747Z,96860.34
2024-01-15T19:13:31.775Z,96858.47
2024-01-15T19:16:01.569Z,96867.69
2024-01-15T19:18:28.551Z,96864.69
2024-01-15T19:20:55.806Z,96869.88
2024-01-15T19:23:23.036Z,96867.56
2024-01-15T19:25:50.253Z,96876.03
2024-01-15T19:28:17.108Z,96873.38
2024-01-15T19:30:44.253Z,96873.84
2024-01-15T19:33:11.696Z,96875.66
2024-01-15T19:35:39.088Z,96872.97
2024-01-15T19:38:07.045Z,96878.16
2024-01-15T19:40:34.363Z,96883.25
2024-01-15T19:43:03.050Z,96886.66
2024-01-15T19:45:32.491Z,96883.03
2024-01-15T19:47:59.775Z,96887.63
2024-01-15T19:50:27.014Z,96879.75
2024-01-15T19:52:54.358Z,96885.81
2024-01-15T19:55:21.458Z,96888.34
2024-01-15T19:57:49.837Z,96885.19
2024-01-15T20:00:17.271Z,96899.56
2024-01-15T20:02:44.365Z,96888.81
2024-01-15T20:05:14.583Z,96886.03
2024-01-15T20:07:41.633Z,96892.19
2024-01-15T20:10:11.017Z,96892.19
2024-01-15T20:12:39.068Z,96892.69
2024-01-15T20:15:06.768Z,96895.56
2024-01-15T20:17:33.627Z,96898.00
2024-01-15T20:20:00.945Z,96905.88
2024-01-15T20:22:28.483Z,96903.53
2024-01-15T20:24:56.315Z,96908.53
2024-01-15T20:27:23.209Z,96903.19
2024-01-15T20:29:50.465Z,96912.13
2024-01-15T20:32:19.441Z,96907.66
2024-01-15T20:34:46.689Z,96919.78
2024-01-15T20:37:13.553Z,96924.38
2024-01-15T20:39:40.686Z,96923.38
2024-01-15T20:42:07.597Z,96917.84
2024-01-15T20:44:34.744Z,96920.63
2024-01-15T20:47:01.755Z,96929.22
2024-01-15T20:49:28.952Z,96923.78
2024-01-15T20:51:55.897Z,96932.59
2024-01-15T20:54:22.996Z,96929.94
2024-01-15T20:56:49.852Z,96936.81
2024-01-15T20:59:17.366Z,96936.81
2024-01-15T21:01:44.205Z,96939.25
2024-01-15T21:04:12.978Z,96940.56
2024-01-15T21:06:39.983Z,96947.34
2024-01-15T21:09:08.781Z,96943.09
2024-01-15T21:11:35.665Z,96940.22
2024-01-15T21:14:03.759Z,96951.38
2024-01-15T21:16:30.652Z,96954.97
2024-01-15T21:18:57.615Z,96951.94
2024-01-15T21:21:25.097Z,96963.06
2024-01-15T21:23:52.005Z,96961.63
2024-01-15T21:26:19.141Z,96966.69
2024-01-15T21:28:46.030Z,96962.78
2024-01-15T21:31:13.204Z,96964.91
2024-01-15T21:33:43.029Z,96965.56
2024-01-15T21:36:10.229Z,96964.63
2024-01-15T21:38:37.122Z,96965.22
2024-01-15T21:41:04.634Z,96966.44
2024-01-15T21:43:31.483Z,96964.16
2024-01-15T21:45:58.678Z,96967.78
2024-01-15T21:48:25.643Z,96968.41
2024-01-15T21:50:52.912Z,96976.28
2024-01-15T21:53:19.869Z,96969.13
2024-01-15T21:55:46.993Z,96981.59
2024-01-15T21:58:13.815Z,96984.81
2024-01-15T22:00:41.167Z,96989.91
2024-01-15T22:03:08.005Z,96992.56
2024-01-15T22:05:35.626Z,96987.13
2024-01-15T22:08:02.563Z,96992.44
2024-01-15T22:10:29.742Z,96990.19
2024-01-15T22:12:56.539Z,96992.75
2024-01-15T22:15:23.744Z,96988.34
2024-01-15T22:17:50.729Z,96997.22
2024-01-15T22:20:17.983Z,97011.19
2024-01-15T22:22:44.942Z,97012.78
2024-01-15T22:25:12.758Z,97004.59
2024-01-15T22:27:39.711Z,97007.28
2024-01-15T22:30:07.214Z,97007.56
2024-01-15T22:32:34.335Z,97014.47
2024-01-15T22:35:01.603Z,97017.94
2024-01-15T22:37:28.534Z,97020.16
2024-01-15T22:39:55.640Z,97027.03
2024-01-15T22:42:22.488Z,97028.63
2024-01-15T22:44:49.815Z,97036.13
2024-01-15T22:47:16.714Z,97043.28
2024-01-15T22:49:44.117Z,97038.69
2024-01-15T22:52:10.942Z,97032.44
2024-01-15T22:54:57.452Z,97031.91
2024-01-15T22:57:24.942Z,97035.94
2024-01-15T22:59:52.126Z,97038.47
2024-01-15T23:02:19.289Z,97046.69
2024-01-15T23:04:47.429Z,97037.66
2024-01-15T23:07:14.303Z,97049.84
2024-01-15T23:09:42.419Z,97038.69
2024-01-15T23:12:09.371Z,97053.28
2024-01-15T23:14:37.820Z,97054.97
2024-01-15T23:17:04.719Z,97066.69
2024-01-15T23:19:31.978Z,97065.53
2024-01-15T23:21:58.866Z,97063.28
2024-01-15T23:24:26.020Z,97071.91
2024-01-15T23:26:53.722Z,97077.22
2024-01-15T23:29:20.947Z,97071.03
2024-01-15T23:31:47.755Z,97063.78
2024-01-15T23:34:14.935Z,97067.44
2024-01-15T23:36:46.069Z,97069.25
2024-01-15T23:39:13.213Z,97078.91
2024-01-15T23:41:40.114Z,97074.78
2024-01-15T23:44:07.355Z,97069.97
2024-01-15T23:46:34.121Z,97070.19
2024-01-15T23:49:01.342Z,97078.06
2024-01-15T23:51:28.334Z,97082.56
2024-01-15T23:53:55.540Z,97077.97
2024-01-15T23:56:22.471Z,97079.75
2024-01-15T23:58:50.496Z,97085.44
